createdAt,value
2022-08-20T00:01:17.455Z,94679.72
2022-08-20T00:03:44.713Z,94689.72
2022-08-20T00:06:22.985Z,94694.75
2022-08-20T00:08:50.440Z,94680.47
2022-08-20T00:11:21.803Z,94702.09
2022-08-20T00:13:55.391Z,94691.25
2022-08-20T00:16:24.643Z,94689.31
2022-08-20T00:18:51.612Z,94688.59
2022-08-20T00:21:20.844Z,94683.53
2022-08-20T00:23:50.323Z,94685.88
2022-08-20T00:26:18.285Z,94689.72
2022-08-20T00:28:45.288Z,94685.09
2022-08-20T00:31:17.660Z,94685.13
2022-08-20T00:33:44.890Z,94680.44
2022-08-20T00:36:12.618Z,94670.81
2022-08-20T00:38:42.953Z,94686.66
2022-08-20T00:41:13.024Z,94678.91
2022-08-20T00:43:43.537Z,94678.91
2022-08-20T00:46:15.997Z,94690.88
2022-08-20T00:48:44.980Z,94675.44
2022-08-20T00:51:18.303Z,94683.94
2022-08-20T00:53:45.619Z,94673.50
2022-08-20T00:56:12.916Z,94678.13
2022-08-20T00:58:42.294Z,94677.78
2022-08-20T01:01:09.696Z,94670.78
2022-08-20T01:03:37.078Z,94666.53
2022-08-20T01:06:04.668Z,94667.28
2022-08-20T01:08:31.622Z,94664.25
2022-08-20T01:11:16.175Z,94665.78
2022-08-20T01:13:45.260Z,94655.75
2022-08-20T01:16:19.062Z,94655.75
2022-08-20T01:18:48.351Z,94648.00
2022-08-20T01:21:21.412Z,94646.47
2022-08-20T01:24:06.548Z,94653.44
2022-08-20T01:26:39.858Z,94650.34
2022-08-20T01:29:14.772Z,94648.00
2022-08-20T01:31:42.977Z,94646.47
2022-08-20T01:34:15.450Z,94654.91
2022-08-20T01:36:54.800Z,94653.75
2022-08-20T01:39:30.582Z,94643.00
2022-08-20T01:42:05.686Z,94653.41
2022-08-20T01:44:33.714Z,94651.09
2022-08-20T01:47:09.991Z,94655.69
2022-08-20T01:49:43.989Z,94649.94
2022-08-20T01:52:17.853Z,94646.47
2022-08-20T01:54:46.000Z,94641.34
2022-08-20T01:57:17.029Z,94641.34
2022-08-20T01:59:44.741Z,94633.00
2022-08-20T02:02:12.942Z,94627.84
2022-08-20T02:04:41.064Z,94624.78
2022-08-20T02:07:14.537Z,94636.72
2022-08-20T02:09:41.987Z,94625.34
2022-08-20T02:12:10.301Z,94628.13
2022-08-20T02:14:45.951Z,94625.94
2022-08-20T02:17:13.749Z,94630.19
2022-08-20T02:19:45.463Z,94640.22
2022-08-20T02:22:23.611Z,94630.97
2022-08-20T02:24:51.402Z,94610.09
2022-08-20T02:27:19.050Z,94627.88
2022-08-20T02:29:46.851Z,94627.09
2022-08-20T02:32:25.155Z,94627.88
2022-08-20T02:35:03.452Z,94610.13
2022-08-20T02:37:30.514Z,94625.53
2022-08-20T02:39:57.359Z,94622.09
2022-08-20T02:42:24.191Z,94624.75
2022-08-20T02:44:51.745Z,94625.09
2022-08-20T02:47:18.781Z,94626.66
2022-08-20T02:49:45.680Z,94623.19
2022-08-20T02:52:12.390Z,94628.56
2022-08-20T02:54:39.107Z,94631.66
2022-08-20T02:57:06.144Z,94637.84
2022-08-20T02:59:33.626Z,94639.34
2022-08-20T03:02:01.325Z,94639.34
2022-08-20T03:04:29.738Z,94639.38
2022-08-20T03:06:57.439Z,94639.69
2022-08-20T03:09:24.472Z,94649.75
2022-08-20T03:11:51.406Z,94641.63
2022-08-20T03:14:18.310Z,94638.97
2022-08-20T03:16:45.117Z,94637.78
2022-08-20T03:19:13.420Z,94642.28
2022-08-20T03:21:40.413Z,94638.13
2022-08-20T03:24:07.475Z,94637.00
2022-08-20T03:26:34.228Z,94647.84
2022-08-20T03:29:01.258Z,94645.50
2022-08-20T03:31:27.995Z,94639.34
2022-08-20T03:33:54.871Z,94645.50
2022-08-20T03:36:28.511Z,94641.69
2022-08-20T03:39:01.773Z,94644.00
2022-08-20T03:41:29.099Z,94636.91
2022-08-20T03:43:56.039Z,94641.56
2022-08-20T03:46:24.047Z,94652.56
2022-08-20T03:49:00.367Z,94650.53
2022-08-20T03:51:57.425Z,94653.00
2022-08-20T03:54:19.079Z,94652.34
2022-08-20T03:56:45.881Z,94645.41
2022-08-20T03:59:12.824Z,94651.63
2022-08-20T04:01:46.416Z,94648.53
2022-08-20T04:04:14.846Z,94656.16
2022-08-20T04:06:42.409Z,94658.56
2022-08-20T04:09:12.223Z,94656.19
2022-08-20T04:11:43.031Z,94645.41
2022-08-20T04:14:11.719Z,94653.16
2022-08-20T04:16:43.851Z,94649.28
2022-08-20T04:19:12.753Z,94658.16
2022-08-20T04:21:39.663Z,94659.28
2022-08-20T04:24:06.552Z,94655.03
2022-08-20T04:26:36.380Z,94658.50
2022-08-20T04:29:03.853Z,94649.53
2022-08-20T04:31:33.898Z,94652.31
2022-08-20T04:34:07.921Z,94655.44
2022-08-20T04:36:35.584Z,94656.94
2022-08-20T04:39:02.377Z,94660.81
2022-08-20T04:41:29.220Z,94659.31
2022-08-20T04:43:56.918Z,94660.88
2022-08-20T04:46:28.777Z,94659.38
2022-08-20T04:48:57.373Z,94660.19
2022-08-20T04:51:24.926Z,94662.06
2022-08-20T04:53:53.951Z,94663.50
2022-08-20T04:56:29.905Z,94673.25
2022-08-20T04:58:59.608Z,94667.78
2022-08-20T05:01:27.767Z,94662.50
2022-08-20T05:03:55.865Z,94660.28
2022-08-20T05:06:25.840Z,94669.47
2022-08-20T05:08:53.799Z,94662.44
2022-08-20T05:11:32.862Z,94666.06
2022-08-20T05:14:02.524Z,94675.03
2022-08-20T05:16:29.691Z,94669.09
2022-08-20T05:18:56.661Z,94671.13
2022-08-20T05:21:23.383Z,94661.38
2022-08-20T05:23:50.221Z,94663.09
2022-08-20T05:26:20.175Z,94666.75
2022-08-20T05:28:57.842Z,94663.91
2022-08-20T05:31:31.457Z,94659.06
2022-08-20T05:34:04.176Z,94658.72
2022-08-20T05:36:31.158Z,94650.63
2022-08-20T05:38:58.024Z,94651.81
2022-08-20T05:41:28.462Z,94647.97
2022-08-20T05:44:00.686Z,94650.25
2022-08-20T05:46:28.096Z,94652.63
2022-08-20T05:48:54.976Z,94652.66
2022-08-20T05:51:26.326Z,94647.22
2022-08-20T05:53:53.052Z,94640.28
2022-08-20T05:56:19.840Z,94649.19
2022-08-20T05:58:53.741Z,94647.25
2022-08-20T06:01:20.510Z,94645.69
2022-08-20T06:04:05.795Z,94648.03
2022-08-20T06:06:45.853Z,94637.94
2022-08-20T06:09:16.373Z,94637.56
2022-08-20T06:11:43.213Z,94633.72
2022-08-20T06:14:10.100Z,94637.56
2022-08-20T06:16:37.581Z,94639.06
2022-08-20T06:19:06.207Z,94641.75
2022-08-20T06:21:38.476Z,94638.66
2022-08-20T06:24:06.788Z,94638.59
2022-08-20T06:26:34.554Z,94651.72
2022-08-20T06:29:03.361Z,94646.28
2022-08-20T06:31:30.203Z,94645.16
2022-08-20T06:33:57.245Z,94645.31
2022-08-20T06:36:24.911Z,94645.84
2022-08-20T06:38:52.068Z,94638.53
2022-08-20T06:41:18.902Z,94640.16
2022-08-20T06:43:46.515Z,94643.25
2022-08-20T06:46:14.616Z,94626.81
2022-08-20T06:48:41.444Z,94629.66
2022-08-20T06:51:09.831Z,94623.91
2022-08-20T06:53:37.057Z,94626.66
2022-08-20T06:56:04.504Z,94629.78
2022-08-20T06:58:37.191Z,94617.06
2022-08-20T07:01:11.280Z,94622.06
2022-08-20T07:03:42.374Z,94624.94
2022-08-20T07:06:25.663Z,94618.59
2022-08-20T07:08:54.146Z,94606.41
2022-08-20T07:11:39.964Z,94607.28
2022-08-20T07:14:06.789Z,94592.50
2022-08-20T07:16:33.608Z,94611.72
2022-08-20T07:19:00.491Z,94608.31
2022-08-20T07:21:27.227Z,94600.56
2022-08-20T07:23:54.145Z,94602.53
2022-08-20T07:26:20.953Z,94601.50
2022-08-20T07:28:47.819Z,94596.53
2022-08-20T07:31:34.882Z,94596.72
2022-08-20T07:34:02.656Z,94597.69
2022-08-20T07:36:30.381Z,94594.88
2022-08-20T07:38:57.399Z,94590.03
2022-08-20T07:41:24.160Z,94601.47
2022-08-20T07:43:51.143Z,94603.25
2022-08-20T07:46:20.596Z,94606.16
2022-08-20T07:48:50.207Z,94598.41
2022-08-20T07:51:20.717Z,94597.25
2022-08-20T07:53:49.248Z,94599.06
2022-08-20T07:56:24.524Z,94596.28
2022-08-20T07:58:55.541Z,94589.81
2022-08-20T08:01:32.464Z,94595.84
2022-08-20T08:04:00.698Z,94592.53
2022-08-20T08:06:31.142Z,94585.88
2022-08-20T08:09:08.402Z,94594.69
2022-08-20T08:11:39.730Z,94588.16
2022-08-20T08:14:10.120Z,94603.63
2022-08-20T08:16:37.822Z,94592.44
2022-08-20T08:19:07.568Z,94596.22
2022-08-20T08:21:34.686Z,94592.47
2022-08-20T08:24:02.577Z,94588.72
2022-08-20T08:26:29.581Z,94584.72
2022-08-20T08:28:58.316Z,94583.22
2022-08-20T08:31:26.042Z,94582.25
2022-08-20T08:33:52.854Z,94586.28
2022-08-20T08:36:19.931Z,94582.25
2022-08-20T08:38:47.079Z,94580.19
2022-08-20T08:41:31.318Z,94580.41
2022-08-20T08:44:13.944Z,94566.47
2022-08-20T08:46:48.421Z,94557.41
2022-08-20T08:49:20.292Z,94556.19
2022-08-20T08:52:05.042Z,94547.03
2022-08-20T08:54:35.219Z,94559.28
2022-08-20T08:57:02.793Z,94553.97
2022-08-20T08:59:56.215Z,94551.88
2022-08-20T09:02:26.068Z,94543.06
2022-08-20T09:04:56.575Z,94529.44
2022-08-20T09:07:26.373Z,94533.44
2022-08-20T09:09:53.542Z,94528.44
2022-08-20T09:12:23.755Z,94532.41
2022-08-20T09:14:51.805Z,94532.66
2022-08-20T09:17:21.477Z,94529.91
2022-08-20T09:19:50.228Z,94534.66
2022-08-20T09:22:21.782Z,94540.00
2022-08-20T09:24:50.347Z,94532.16
2022-08-20T09:27:18.132Z,94533.00
2022-08-20T09:29:45.683Z,94533.34
2022-08-20T09:32:17.739Z,94533.81
2022-08-20T09:34:47.616Z,94523.31
2022-08-20T09:37:15.353Z,94519.88
2022-08-20T09:39:43.069Z,94519.88
2022-08-20T09:42:15.559Z,94520.16
2022-08-20T09:44:43.005Z,94523.47
2022-08-20T09:47:10.787Z,94517.06
2022-08-20T09:49:39.034Z,94498.88
2022-08-20T09:52:09.102Z,94514.84
2022-08-20T09:54:37.686Z,94511.78
2022-08-20T09:57:07.553Z,94505.59
2022-08-20T09:59:35.375Z,94501.84
2022-08-20T10:02:02.563Z,94509.47
2022-08-20T10:04:29.933Z,94514.66
2022-08-20T10:06:56.924Z,94519.25
2022-08-20T10:09:24.433Z,94516.19
2022-08-20T10:11:51.185Z,94511.03
2022-08-20T10:14:18.048Z,94507.69
2022-08-20T10:16:44.822Z,94513.25
2022-08-20T10:19:11.880Z,94508.34
2022-08-20T10:21:39.366Z,94488.22
2022-08-20T10:24:06.454Z,94510.09
2022-08-20T10:26:33.842Z,94498.72
2022-08-20T10:29:00.571Z,94499.16
2022-08-20T10:31:27.303Z,94492.88
2022-08-20T10:33:54.220Z,94494.84
2022-08-20T10:36:21.204Z,94489.28
2022-08-20T10:38:49.116Z,94487.31
2022-08-20T10:41:16.004Z,94485.03
2022-08-20T10:43:42.807Z,94483.47
2022-08-20T10:46:09.823Z,94481.22
2022-08-20T10:48:36.797Z,94478.78
2022-08-20T10:51:03.942Z,94475.78
2022-08-20T10:53:31.189Z,94471.56
2022-08-20T10:55:58.269Z,94480.03
2022-08-20T10:58:26.628Z,94470.44
2022-08-20T11:01:04.993Z,94467.47
2022-08-20T11:03:31.792Z,94465.56
2022-08-20T11:05:58.677Z,94468.88
2022-08-20T11:08:33.586Z,94465.31
2022-08-20T11:11:01.903Z,94472.88
2022-08-20T11:13:28.780Z,94474.16
2022-08-20T11:15:55.710Z,94465.13
2022-08-20T11:18:22.595Z,94456.50
2022-08-20T11:20:49.435Z,94464.50
2022-08-20T11:23:16.389Z,94460.75
2022-08-20T11:25:43.214Z,94456.00
2022-08-20T11:28:10.239Z,94449.22
2022-08-20T11:30:37.674Z,94438.00
2022-08-20T11:33:05.569Z,94434.31
2022-08-20T11:35:48.236Z,94427.97
2022-08-20T11:38:17.017Z,94419.06
2022-08-20T11:40:43.840Z,94419.38
2022-08-20T11:43:16.286Z,94424.84
2022-08-20T11:45:46.431Z,94405.28
2022-08-20T11:48:13.297Z,94414.22
2022-08-20T11:50:40.437Z,94408.81
2022-08-20T11:53:07.938Z,94414.19
2022-08-20T11:55:35.720Z,94397.78
2022-08-20T11:58:02.927Z,94403.53
2022-08-20T12:00:32.769Z,94414.97
2022-08-20T12:03:05.378Z,94417.81
2022-08-20T12:05:33.098Z,94420.38
2022-08-20T12:08:03.576Z,94412.16
2022-08-20T12:10:31.392Z,94408.13
2022-08-20T12:12:58.628Z,94405.63
2022-08-20T12:15:26.887Z,94410.88
2022-08-20T12:17:54.952Z,94415.47
2022-08-20T12:20:23.582Z,94421.38
2022-08-20T12:22:50.932Z,94422.69
2022-08-20T12:25:18.094Z,94422.50
2022-08-20T12:27:46.132Z,94416.03
2022-08-20T12:30:19.867Z,94421.72
2022-08-20T12:32:47.556Z,94428.63
2022-08-20T12:35:16.409Z,94427.50
2022-08-20T12:37:45.616Z,94436.56
2022-08-20T12:40:17.116Z,94443.50
2022-08-20T12:42:51.734Z,94433.38
2022-08-20T12:45:19.362Z,94463.84
2022-08-20T12:47:48.038Z,94497.88
2022-08-20T12:50:21.928Z,94504.75
2022-08-20T12:52:48.912Z,94504.59
2022-08-20T12:55:19.101Z,94504.34
2022-08-20T12:57:49.871Z,94499.28
2022-08-20T13:00:22.609Z,94484.94
2022-08-20T13:02:53.654Z,94440.31
2022-08-20T13:05:21.154Z,94421.34
2022-08-20T13:07:48.565Z,94410.56
2022-08-20T13:10:23.291Z,94398.94
2022-08-20T13:12:50.790Z,94401.09
2022-08-20T13:15:18.670Z,94408.78
2022-08-20T13:17:45.741Z,94405.16
2022-08-20T13:20:15.519Z,94402.66
2022-08-20T13:22:42.757Z,94401.25
2022-08-20T13:25:12.343Z,94400.97
2022-08-20T13:27:42.072Z,94414.91
2022-08-20T13:30:12.381Z,94425.50
2022-08-20T13:32:39.353Z,94443.75
2022-08-20T13:35:06.521Z,94450.84
2022-08-20T13:37:33.683Z,94446.88
2022-08-20T13:40:03.219Z,94453.16
2022-08-20T13:42:30.163Z,94462.97
2022-08-20T13:44:57.095Z,94469.47
2022-08-20T13:47:28.513Z,94472.63
2022-08-20T13:49:58.559Z,94475.69
2022-08-20T13:52:26.288Z,94475.69
2022-08-20T13:54:54.084Z,94472.63
2022-08-20T13:57:22.998Z,94487.91
2022-08-20T13:59:52.535Z,94535.25
2022-08-20T14:02:20.979Z,94580.78
2022-08-20T14:04:49.149Z,94586.84
2022-08-20T14:07:28.891Z,94603.88
2022-08-20T14:10:01.681Z,94620.06
2022-08-20T14:12:28.795Z,94649.66
2022-08-20T14:14:58.137Z,94606.22
2022-08-20T14:17:26.728Z,94631.69
2022-08-20T14:20:00.926Z,94632.03
2022-08-20T14:22:29.508Z,94632.94
2022-08-20T14:24:56.806Z,94628.78
2022-08-20T14:27:27.805Z,94620.91
2022-08-20T14:29:58.567Z,94610.16
2022-08-20T14:32:26.380Z,94596.63
2022-08-20T14:34:56.692Z,94606.47
2022-08-20T14:37:26.744Z,94626.78
2022-08-20T14:39:57.038Z,94632.28
2022-08-20T14:42:26.583Z,94659.91
2022-08-20T14:44:57.033Z,94672.28
2022-08-20T14:47:30.270Z,94687.94
2022-08-20T14:50:02.561Z,94679.88
2022-08-20T14:52:33.033Z,94656.84
2022-08-20T14:54:59.803Z,94589.13
2022-08-20T14:57:26.734Z,94594.72
2022-08-20T14:59:53.759Z,94559.78
2022-08-20T15:02:20.656Z,94537.13
2022-08-20T15:04:54.221Z,94522.31
2022-08-20T15:07:31.025Z,94513.13
2022-08-20T15:09:58.360Z,94499.28
2022-08-20T15:12:25.148Z,94477.25
2022-08-20T15:14:52.160Z,94497.78
2022-08-20T15:17:25.916Z,94507.41
2022-08-20T15:19:53.469Z,94530.16
2022-08-20T15:22:21.696Z,94544.59
2022-08-20T15:24:48.931Z,94555.34
2022-08-20T15:27:22.317Z,94542.16
2022-08-20T15:29:55.104Z,94519.53
2022-08-20T15:32:22.400Z,94511.44
2022-08-20T15:34:49.862Z,94509.78
2022-08-20T15:37:23.121Z,94529.34
2022-08-20T15:39:51.360Z,94519.22
2022-08-20T15:42:20.116Z,94501.06
2022-08-20T15:44:47.706Z,94490.41
2022-08-20T15:47:29.614Z,94492.03
2022-08-20T15:50:04.722Z,94485.28
2022-08-20T15:52:43.391Z,94487.28
2022-08-20T15:55:13.363Z,94483.66
2022-08-20T15:57:59.901Z,94456.94
2022-08-20T16:00:37.774Z,94440.72
2022-08-20T16:03:22.349Z,94411.81
2022-08-20T16:06:03.790Z,94352.56
2022-08-20T16:08:58.279Z,94277.22
2022-08-20T16:11:25.000Z,94336.06
2022-08-20T16:13:55.203Z,94389.84
2022-08-20T16:16:33.747Z,94374.81
2022-08-20T16:19:00.747Z,94370.97
2022-08-20T16:21:34.795Z,94363.75
2022-08-20T16:24:01.830Z,94372.25
2022-08-20T16:26:34.672Z,94389.34
2022-08-20T16:29:18.177Z,94397.50
2022-08-20T16:32:01.518Z,94394.41
2022-08-20T16:34:34.916Z,94389.41
2022-08-20T16:37:28.759Z,94406.38
2022-08-20T16:40:09.964Z,94416.78
2022-08-20T16:42:40.659Z,94438.00
2022-08-20T16:45:13.717Z,94446.88
2022-08-20T16:47:43.373Z,94448.81
2022-08-20T16:50:16.972Z,94436.84
2022-08-20T16:52:46.528Z,94435.69
2022-08-20T16:55:14.454Z,94448.03
2022-08-20T16:57:41.295Z,94434.91
2022-08-20T17:00:30.444Z,94462.69
2022-08-20T17:03:00.892Z,94480.66
2022-08-20T17:05:45.843Z,94496.59
2022-08-20T17:08:23.143Z,94520.53
2022-08-20T17:10:58.131Z,94537.44
2022-08-20T17:13:32.467Z,94539.38
2022-08-20T17:16:03.622Z,94545.56
2022-08-20T17:18:34.749Z,94544.41
2022-08-20T17:21:12.332Z,94554.06
2022-08-20T17:23:55.604Z,94543.66
2022-08-20T17:26:46.105Z,94553.47
2022-08-20T17:29:18.079Z,94573.59
2022-08-20T17:31:50.386Z,94587.13
2022-08-20T17:34:24.053Z,94587.00
2022-08-20T17:37:08.159Z,94609.28
2022-08-20T17:39:35.332Z,94621.38
2022-08-20T17:42:14.035Z,94655.00
2022-08-20T17:44:51.212Z,94668.44
2022-08-20T17:47:25.532Z,94681.59
2022-08-20T17:50:02.592Z,94691.50
2022-08-20T17:52:48.868Z,94699.19
2022-08-20T17:55:16.249Z,94680.75
2022-08-20T17:57:45.342Z,94684.78
2022-08-20T18:00:23.683Z,94697.00
2022-08-20T18:02:58.865Z,94702.03
2022-08-20T18:05:28.807Z,94727.38
2022-08-20T18:08:21.507Z,94725.84
2022-08-20T18:11:01.205Z,94737.88
2022-08-20T18:13:44.972Z,94749.16
2022-08-20T18:16:25.518Z,94760.97
2022-08-20T18:19:12.748Z,94772.50
2022-08-20T18:22:01.386Z,94777.00
2022-08-20T18:24:37.182Z,94768.28
2022-08-20T18:27:14.124Z,94791.91
2022-08-20T18:29:44.811Z,94797.34
2022-08-20T18:32:30.260Z,94775.22
2022-08-20T18:35:10.465Z,94773.69
2022-08-20T18:37:37.827Z,94775.44
2022-08-20T18:40:16.823Z,94768.22
2022-08-20T18:42:45.856Z,94784.63
2022-08-20T18:45:12.768Z,94776.84
2022-08-20T18:47:46.952Z,94773.31
2022-08-20T18:50:20.331Z,94768.03
2022-08-20T18:52:49.012Z,94761.09
2022-08-20T18:55:33.386Z,94757.41
2022-08-20T18:58:04.271Z,94782.31
2022-08-20T19:00:38.692Z,94796.56
2022-08-20T19:03:08.426Z,94796.38
2022-08-20T19:06:02.178Z,94787.41
2022-08-20T19:08:44.794Z,94776.31
2022-08-20T19:11:28.492Z,94775.72
2022-08-20T19:14:23.117Z,94783.22
2022-08-20T19:16:58.769Z,94794.78
2022-08-20T19:19:29.557Z,94811.13
2022-08-20T19:22:05.874Z,94805.84
2022-08-20T19:24:35.789Z,94807.84
2022-08-20T19:27:07.985Z,94814.25
2022-08-20T19:29:42.174Z,94809.63
2022-08-20T19:32:17.777Z,94799.28
2022-08-20T19:34:52.691Z,94792.63
2022-08-20T19:37:39.726Z,94800.34
2022-08-20T19:40:38.900Z,94795.22
2022-08-20T19:43:15.968Z,94795.50
2022-08-20T19:45:54.423Z,94814.50
2022-08-20T19:48:38.779Z,94816.22
2022-08-20T19:51:08.866Z,94792.34
2022-08-20T19:53:44.897Z,94793.75
2022-08-20T19:56:18.791Z,94788.28
2022-08-20T19:58:46.500Z,94769.19
2022-08-20T20:01:20.898Z,94771.28
2022-08-20T20:04:02.763Z,94771.66
2022-08-20T20:06:33.979Z,94772.03
2022-08-20T20:09:04.864Z,94761.66
2022-08-20T20:11:35.977Z,94779.59
2022-08-20T20:14:11.881Z,94777.41
2022-08-20T20:16:40.425Z,94780.91
2022-08-20T20:19:27.964Z,94786.78
2022-08-20T20:22:24.154Z,94800.19
2022-08-20T20:24:59.898Z,94785.91
2022-08-20T20:27:28.846Z,94797.09
2022-08-20T20:30:06.170Z,94788.03
2022-08-20T20:32:34.074Z,94791.25
2022-08-20T20:35:04.892Z,94793.81
2022-08-20T20:37:50.827Z,94790.44
2022-08-20T20:40:27.712Z,94781.13
2022-08-20T20:43:05.080Z,94771.66
2022-08-20T20:45:35.045Z,94760.88
2022-08-20T20:48:28.498Z,94753.28
2022-08-20T20:51:11.815Z,94737.19
2022-08-20T20:53:47.544Z,94736.41
2022-08-20T20:56:42.936Z,94711.09
2022-08-20T20:59:10.947Z,94699.72
2022-08-20T21:01:50.238Z,94687.75
2022-08-20T21:04:25.060Z,94678.06
2022-08-20T21:06:54.416Z,94658.66
2022-08-20T21:09:22.599Z,94653.19
2022-08-20T21:11:49.854Z,94633.78
2022-08-20T21:14:18.011Z,94613.38
2022-08-20T21:16:45.421Z,94594.03
2022-08-20T21:19:12.659Z,94605.06
2022-08-20T21:21:40.197Z,94585.38
2022-08-20T21:24:08.039Z,94578.88
2022-08-20T21:26:36.004Z,94582.53
2022-08-20T21:29:04.214Z,94580.91
2022-08-20T21:31:34.688Z,94595.34
2022-08-20T21:34:02.146Z,94584.72
2022-08-20T21:36:28.909Z,94589.75
2022-08-20T21:38:56.231Z,94579.16
2022-08-20T21:41:25.134Z,94577.63
2022-08-20T21:43:58.643Z,94573.91
2022-08-20T21:46:26.036Z,94560.50
2022-08-20T21:48:52.970Z,94550.56
2022-08-20T21:51:19.759Z,94552.75
2022-08-20T21:53:46.980Z,94554.19
2022-08-20T21:56:13.720Z,94576.47
2022-08-20T21:58:40.572Z,94595.31
2022-08-20T22:01:07.929Z,94591.50
2022-08-20T22:03:38.901Z,94584.72
2022-08-20T22:06:11.694Z,94587.50
2022-08-20T22:08:39.201Z,94607.28
2022-08-20T22:11:08.721Z,94598.38
2022-08-20T22:13:36.184Z,94605.44
2022-08-20T22:16:07.440Z,94613.94
2022-08-20T22:18:35.790Z,94623.22
2022-08-20T22:21:06.260Z,94622.16
2022-08-20T22:23:32.976Z,94623.28
2022-08-20T22:25:59.938Z,94612.13
2022-08-20T22:28:26.763Z,94614.75
2022-08-20T22:30:53.798Z,94613.06
2022-08-20T22:33:22.823Z,94608.41
2022-08-20T22:35:53.934Z,94605.59
2022-08-20T22:38:21.160Z,94598.16
2022-08-20T22:40:48.589Z,94591.28
2022-08-20T22:43:16.154Z,94595.81
2022-08-20T22:45:45.776Z,94581.44
2022-08-20T22:48:17.214Z,94578.72
2022-08-20T22:50:45.095Z,94597.31
2022-08-20T22:53:12.987Z,94596.66
2022-08-20T22:55:40.045Z,94593.84
2022-08-20T22:58:07.023Z,94594.50
2022-08-20T23:00:34.643Z,94585.34
2022-08-20T23:03:03.251Z,94593.50
2022-08-20T23:05:33.605Z,94585.72
2022-08-20T23:08:00.928Z,94577.22
2022-08-20T23:10:30.355Z,94577.81
2022-08-20T23:12:57.454Z,94570.41
2022-08-20T23:15:27.571Z,94561.56
2022-08-20T23:18:00.460Z,94564.44
2022-08-20T23:20:27.468Z,94555.13
2022-08-20T23:22:54.738Z,94564.19
2022-08-20T23:25:21.807Z,94557.63
2022-08-20T23:27:53.651Z,94562.25
2022-08-20T23:30:21.899Z,94541.56
2022-08-20T23:32:49.079Z,94554.06
2022-08-20T23:35:15.996Z,94557.34
2022-08-20T23:37:46.447Z,94535.47
2022-08-20T23:40:14.748Z,94546.31
2022-08-20T23:42:41.852Z,94548.41
2022-08-20T23:45:09.324Z,94553.84
2022-08-20T23:47:36.303Z,94563.16
2022-08-20T23:50:04.901Z,94558.94
2022-08-20T23:52:32.063Z,94555.41
2022-08-20T23:54:58.986Z,94556.84
2022-08-20T23:57:25.979Z,94553.97
2022-08-20T23:59:53.039Z,94545.25
